Tamassee, SC (29686)

6:38 PM EDT on October 01, 2016 (GMT -0400)
Lake Cherokee | | Change Station

Elev 1083 ft 34.91 °N, 83.06 °W | Updated 6 seconds ago

Clear
Clear
76.1 °F
Feels Like 78 °F
N
6.0
Wind Variable Wind from NW
Gusts 7.4 mph

Today
High -- | Low -- °F
--% Chance of Precip.
Yesterday
High -- | Low -- °F
Precip. -- in
Pressure 30.02 in
Visibility 10.0 miles
Clouds Clear
Heat Index 78 °F
Dew Point 62 °F
Humidity 62%
Rainfall 0.00 in
Snow Depth Not available.
7:27 AM 7:15 PM
New Moon, 1% visible
METAR KCEU 012154Z AUTO 23003KT 10SM CLR 26/08 A3004 RMK AO2 SLP166 T02610078
Pressure 30.02 in
Visibility 10.0 miles
Clouds Clear
Heat Index 78 °F
Dew Point 62 °F
Humidity 62%
Rainfall 0.00 in
Snow Depth Not available.
7:27 AM 7:15 PM
New Moon, 1% visible
METAR KCEU 012154Z AUTO 23003KT 10SM CLR 26/08 A3004 RMK AO2 SLP166 T02610078

10-Day Weather Forecast

Almanac

Astronomy

Oct. 01, 2016 Rise Set
Actual Time
Civil Twilight
Nautical Twilight
Astronomical Twilight
Moon
Length of Visible Light
Length of Day
Tomorrow will be .
, % of the Moon is Illuminated

Today's Extremes

State Highs State Lows

Community

WunderPhotos

Upload Photos

1,943,041 photos uploaded!

WunderBlog® & News

Nearby

Air Quality

  Air Quality AQ Index Pollutant
Not available.

Snow Depth

Station Depth Elevation

Earthquake Activity

City Distance Mag. Time & Date
Minimum magnitude displayed is 2.5.

Coastal Water Temperatures

Place Temperature

Stations

Nearby Weather Stations

Station Location Temp. Windchill Dew Point Humidity Wind Precip. Elev Updated Type
                   

Watches & Warnings

There are currently no watches in effect.